createdAt,value
2019-05-21T00:01:44.790Z,5.97
2019-05-21T00:04:27.379Z,5.70
2019-05-21T00:06:47.192Z,5.37
2019-05-21T00:09:17.147Z,7.60
2019-05-21T00:11:47.289Z,5.87
2019-05-21T00:14:18.001Z,5.15
2019-05-21T00:16:47.843Z,4.90
2019-05-21T00:19:17.681Z,5.67
2019-05-21T00:21:48.604Z,6.03
2019-05-21T00:24:18.454Z,6.42
2019-05-21T00:26:48.357Z,6.90
2019-05-21T00:29:54.892Z,7.42
2019-05-21T00:33:01.341Z,5.95
2019-05-21T00:36:08.044Z,11.78
2019-05-21T00:39:15.386Z,6.20
2019-05-21T00:42:04.909Z,6.83
2019-05-21T00:44:37.995Z,7.87
2019-05-21T00:47:10.159Z,5.92
2019-05-21T00:49:40.119Z,5.97
2019-05-21T00:52:09.976Z,7.33
2019-05-21T00:54:39.823Z,6.17
2019-05-21T00:57:09.687Z,6.60
2019-05-21T00:59:39.541Z,6.50
2019-05-21T01:02:10.451Z,9.58
2019-05-21T01:04:40.291Z,7.08
2019-05-21T01:07:10.151Z,6.95
2019-05-21T01:09:39.986Z,8.10
2019-05-21T01:12:09.839Z,6.90
2019-05-21T01:14:40.043Z,7.10
2019-05-21T01:17:10.185Z,7.50
2019-05-21T01:19:40.045Z,7.08
2019-05-21T01:22:09.905Z,6.60
2019-05-21T01:24:39.759Z,6.58
2019-05-21T01:27:11.244Z,8.03
2019-05-21T01:29:41.064Z,7.55
2019-05-21T01:32:10.915Z,6.85
2019-05-21T01:34:41.166Z,18.90
2019-05-21T01:37:11.023Z,7.22
2019-05-21T01:39:40.866Z,7.53
2019-05-21T01:42:10.705Z,6.87
2019-05-21T01:44:40.594Z,7.22
2019-05-21T01:47:10.442Z,10.05
2019-05-21T01:49:40.702Z,7.80
2019-05-21T01:52:10.547Z,8.90
2019-05-21T01:54:40.411Z,7.05
2019-05-21T01:57:10.633Z,8.48
2019-05-21T01:59:40.801Z,8.98
2019-05-21T02:02:10.979Z,12.33
2019-05-21T02:04:40.831Z,7.90
2019-05-21T02:07:10.672Z,8.53
2019-05-21T02:09:58.679Z,8.05
2019-05-21T02:12:28.522Z,8.63
2019-05-21T02:14:59.999Z,7.87
2019-05-21T02:17:29.897Z,7.75
2019-05-21T02:19:59.748Z,9.68
2019-05-21T02:22:29.595Z,9.58
2019-05-21T02:24:59.460Z,11.12
2019-05-21T02:27:29.320Z,12.55
2019-05-21T02:29:59.205Z,7.78
2019-05-21T02:32:29.095Z,7.83
2019-05-21T02:34:58.935Z,8.98
2019-05-21T02:37:28.775Z,8.13
2019-05-21T02:39:58.978Z,8.03
2019-05-21T02:42:28.842Z,7.62
2019-05-21T02:44:58.684Z,9.33
2019-05-21T02:47:28.804Z,7.22
2019-05-21T02:49:59.024Z,8.05
2019-05-21T02:52:28.889Z,13.35
2019-05-21T02:54:58.752Z,9.20
2019-05-21T02:57:36.034Z,8.20
2019-05-21T03:00:08.656Z,9.53
2019-05-21T03:02:40.729Z,8.98
2019-05-21T03:05:10.585Z,10.78
2019-05-21T03:07:40.440Z,9.00
2019-05-21T03:10:10.292Z,9.95
2019-05-21T03:12:40.426Z,9.40
2019-05-21T03:15:10.279Z,8.70
2019-05-21T03:17:40.124Z,8.80
2019-05-21T03:20:09.982Z,9.25
2019-05-21T03:22:39.949Z,10.63
2019-05-21T03:25:10.464Z,10.05
2019-05-21T03:27:40.780Z,9.18
2019-05-21T03:30:11.402Z,12.53
2019-05-21T03:32:41.302Z,14.28
2019-05-21T03:35:11.123Z,10.10
2019-05-21T03:37:41.473Z,9.78
2019-05-21T03:40:11.305Z,9.40
2019-05-21T03:42:41.174Z,10.05
2019-05-21T03:45:11.032Z,10.70
2019-05-21T03:47:40.891Z,11.33
2019-05-21T03:50:10.825Z,10.43
2019-05-21T03:52:41.770Z,12.25
2019-05-21T03:55:11.619Z,12.73
2019-05-21T03:57:41.494Z,14.68
2019-05-21T04:00:11.563Z,10.50
2019-05-21T04:02:41.462Z,11.90
2019-05-21T04:05:11.687Z,13.90
2019-05-21T04:07:41.567Z,12.70
2019-05-21T04:10:17.127Z,15.38
2019-05-21T04:12:49.076Z,13.05
2019-05-21T04:15:20.586Z,14.30
2019-05-21T04:17:52.107Z,18.98
2019-05-21T04:20:21.942Z,14.00
2019-05-21T04:22:54.778Z,12.85
2019-05-21T04:27:54.068Z,15.30
2019-05-21T04:30:23.935Z,11.90
2019-05-21T04:32:53.855Z,14.13
2019-05-21T04:35:23.707Z,14.55
2019-05-21T04:37:53.571Z,13.30
2019-05-21T04:40:23.425Z,13.45
2019-05-21T04:42:53.372Z,14.93
2019-05-21T04:45:23.234Z,12.23
2019-05-21T04:47:53.088Z,14.75
2019-05-21T04:50:23.050Z,16.93
2019-05-21T04:52:53.315Z,13.48
2019-05-21T04:55:23.217Z,12.85
2019-05-21T04:57:53.367Z,15.98
2019-05-21T05:00:23.568Z,15.35
2019-05-21T05:02:53.428Z,14.43
2019-05-21T05:05:23.319Z,12.28
2019-05-21T05:07:53.523Z,15.45
2019-05-21T05:10:23.465Z,12.88
2019-05-21T05:12:53.402Z,12.98
2019-05-21T05:15:23.255Z,12.13
2019-05-21T05:17:53.122Z,12.47
2019-05-21T05:20:22.985Z,13.48
2019-05-21T05:22:52.855Z,15.15
2019-05-21T05:25:23.673Z,13.93
2019-05-21T05:27:53.586Z,15.28
2019-05-21T05:30:23.439Z,14.33
2019-05-21T05:32:53.376Z,14.38
2019-05-21T05:35:23.228Z,14.78
2019-05-21T05:37:53.090Z,12.47
2019-05-21T05:40:22.989Z,16.87
2019-05-21T05:42:52.843Z,16.23
2019-05-21T05:45:22.694Z,13.28
2019-05-21T05:47:52.984Z,14.47
2019-05-21T05:50:33.242Z,14.80
2019-05-21T05:53:03.105Z,13.65
2019-05-21T05:55:32.961Z,14.18
2019-05-21T05:58:02.832Z,14.35
2019-05-21T06:00:32.702Z,12.30
2019-05-21T06:03:02.613Z,15.65
2019-05-21T06:05:32.473Z,13.35
2019-05-21T06:08:02.748Z,12.13
2019-05-21T06:10:32.604Z,14.10
2019-05-21T06:13:02.833Z,12.03
2019-05-21T06:15:32.692Z,14.78
2019-05-21T06:18:02.651Z,15.38
2019-05-21T06:20:32.670Z,13.20
2019-05-21T06:23:02.549Z,14.28
2019-05-21T06:25:32.430Z,14.40
2019-05-21T06:28:02.281Z,14.85
2019-05-21T06:30:32.215Z,17.00
2019-05-21T06:33:02.399Z,15.35
2019-05-21T06:35:32.246Z,18.57
2019-05-21T06:38:16.465Z,24.12
2019-05-21T06:40:34.085Z,17.73
2019-05-21T06:43:05.422Z,14.15
2019-05-21T06:45:35.319Z,18.52
2019-05-21T06:48:05.243Z,13.68
2019-05-21T06:50:37.437Z,14.25
2019-05-21T06:53:06.579Z,17.32
2019-05-21T06:55:36.444Z,15.50
2019-05-21T06:58:06.319Z,15.38
2019-05-21T07:00:36.213Z,14.55
2019-05-21T07:03:06.078Z,15.75
2019-05-21T07:05:35.937Z,20.85
2019-05-21T07:08:05.799Z,17.57
2019-05-21T07:10:35.677Z,15.90
2019-05-21T07:13:05.549Z,19.37
2019-05-21T07:15:35.406Z,15.20
2019-05-21T07:18:05.280Z,17.45
2019-05-21T07:20:38.098Z,19.62
2019-05-21T07:25:37.112Z,19.17
2019-05-21T07:28:07.387Z,22.50
2019-05-21T07:30:37.262Z,20.72
2019-05-21T07:33:07.504Z,17.27
2019-05-21T07:35:37.722Z,22.52
2019-05-21T07:38:08.086Z,20.85
2019-05-21T07:40:39.080Z,18.62
2019-05-21T07:43:08.961Z,24.02
2019-05-21T07:45:42.087Z,19.82
2019-05-21T07:48:12.332Z,23.55
2019-05-21T07:50:42.234Z,23.02
2019-05-21T07:53:12.077Z,22.45
2019-05-21T07:55:41.990Z,23.20
2019-05-21T07:58:11.846Z,22.42
2019-05-21T08:00:41.719Z,19.75
2019-05-21T08:03:11.605Z,19.75
2019-05-21T08:05:41.460Z,19.45
2019-05-21T08:08:11.353Z,25.57
2019-05-21T08:10:41.330Z,20.72
2019-05-21T08:13:11.266Z,23.75
2019-05-21T08:15:41.165Z,26.40
2019-05-21T08:18:11.036Z,20.55
2019-05-21T08:20:40.892Z,28.38
2019-05-21T08:23:10.769Z,21.60
2019-05-21T08:25:40.705Z,21.65
2019-05-21T08:28:10.616Z,18.92
2019-05-21T08:30:40.489Z,20.10
2019-05-21T08:33:10.368Z,18.98
2019-05-21T08:35:40.213Z,20.48
2019-05-21T08:38:10.137Z,18.15
2019-05-21T08:40:40.004Z,23.15
2019-05-21T08:43:09.864Z,24.87
2019-05-21T08:45:39.728Z,17.07
2019-05-21T08:48:09.670Z,19.67
2019-05-21T08:50:39.817Z,20.45
2019-05-21T08:53:09.729Z,14.95
2019-05-21T08:55:39.582Z,18.90
2019-05-21T08:58:09.528Z,18.57
2019-05-21T09:00:39.465Z,16.70
2019-05-21T09:03:09.471Z,17.45
2019-05-21T09:05:39.389Z,16.90
2019-05-21T09:08:09.324Z,13.88
2019-05-21T09:10:41.801Z,15.00
2019-05-21T09:13:11.650Z,16.35
2019-05-21T09:15:41.518Z,17.37
2019-05-21T09:18:12.757Z,16.85
2019-05-21T09:20:42.650Z,14.47
2019-05-21T09:23:12.501Z,15.35
2019-05-21T09:25:42.359Z,15.85
2019-05-21T09:28:12.277Z,16.40
2019-05-21T09:30:42.121Z,13.88
2019-05-21T09:33:11.981Z,25.72
2019-05-21T09:35:42.255Z,19.10
2019-05-21T09:38:12.146Z,12.90
2019-05-21T09:40:42.065Z,13.83
2019-05-21T09:43:11.954Z,13.00
2019-05-21T09:45:41.984Z,14.70
2019-05-21T09:48:11.839Z,15.93
2019-05-21T09:50:42.056Z,16.07
2019-05-21T09:53:11.909Z,17.40
2019-05-21T09:55:41.772Z,13.53
2019-05-21T09:58:13.291Z,15.10
2019-05-21T10:01:02.097Z,17.25
2019-05-21T10:03:34.041Z,18.02
2019-05-21T10:06:03.979Z,17.97
2019-05-21T10:08:37.128Z,15.25
2019-05-21T10:11:05.720Z,17.52
2019-05-21T10:13:35.571Z,14.87
2019-05-21T10:16:05.421Z,13.98
2019-05-21T10:18:35.273Z,14.73
2019-05-21T10:21:05.134Z,11.83
2019-05-21T10:23:36.050Z,11.12
2019-05-21T10:26:06.193Z,10.20
2019-05-21T10:28:36.042Z,8.10
2019-05-21T10:31:05.959Z,10.88
2019-05-21T10:33:35.801Z,15.10
2019-05-21T10:36:05.939Z,9.35
2019-05-21T10:38:36.944Z,14.43
2019-05-21T10:41:06.858Z,7.55
2019-05-21T10:43:37.085Z,8.55
2019-05-21T10:46:06.958Z,10.43
2019-05-21T10:48:36.847Z,11.57
2019-05-21T10:51:06.759Z,11.12
2019-05-21T10:53:36.689Z,10.53
2019-05-21T10:56:06.870Z,10.20
2019-05-21T10:58:36.714Z,10.45
2019-05-21T11:01:26.386Z,10.80
2019-05-21T11:04:09.838Z,10.38
2019-05-21T11:06:40.687Z,11.25
2019-05-21T11:09:12.159Z,9.75
2019-05-21T11:11:42.403Z,11.40
2019-05-21T11:14:12.630Z,9.60
2019-05-21T11:16:42.483Z,8.08
2019-05-21T11:19:12.331Z,11.35
2019-05-21T11:21:42.181Z,10.53
2019-05-21T11:24:12.073Z,10.75
2019-05-21T11:26:42.013Z,10.88
2019-05-21T11:29:11.863Z,10.35
2019-05-21T11:31:55.652Z,8.65
2019-05-21T11:34:13.193Z,8.98
2019-05-21T11:36:43.054Z,8.75
2019-05-21T11:39:12.885Z,8.13
2019-05-21T11:41:42.757Z,9.18
2019-05-21T11:44:12.595Z,8.28
2019-05-21T11:46:42.538Z,9.40
2019-05-21T11:49:12.382Z,7.25
2019-05-21T11:51:42.571Z,8.18
2019-05-21T11:54:12.447Z,7.95
2019-05-21T11:56:43.310Z,8.30
2019-05-21T11:59:13.205Z,7.25
2019-05-21T12:01:43.131Z,6.35
2019-05-21T12:04:13.001Z,8.23
2019-05-21T12:06:42.832Z,10.95
2019-05-21T12:09:12.682Z,10.00
2019-05-21T12:11:42.526Z,9.08
2019-05-21T12:14:12.376Z,8.78
2019-05-21T12:16:42.655Z,7.58
2019-05-21T12:19:12.561Z,9.40
2019-05-21T12:21:42.402Z,9.43
2019-05-21T12:24:13.326Z,6.25
2019-05-21T12:26:43.168Z,6.90
2019-05-21T12:29:13.037Z,6.92
2019-05-21T12:31:43.053Z,8.08
2019-05-21T12:34:12.897Z,7.95
2019-05-21T12:36:42.831Z,8.08
2019-05-21T12:39:14.468Z,8.70
2019-05-21T12:41:44.176Z,8.63
2019-05-21T12:44:14.475Z,8.48
2019-05-21T12:46:44.316Z,7.70
2019-05-21T12:49:14.503Z,8.15
2019-05-21T12:51:44.345Z,7.83
2019-05-21T12:54:14.223Z,8.65
2019-05-21T12:56:44.057Z,10.65
2019-05-21T12:59:13.907Z,8.50
2019-05-21T13:01:43.805Z,11.78
2019-05-21T13:04:13.645Z,10.03
2019-05-21T13:06:43.567Z,9.70
2019-05-21T13:09:31.444Z,11.12
2019-05-21T13:11:45.093Z,11.73
2019-05-21T13:14:18.542Z,12.15
2019-05-21T13:16:46.842Z,13.20
2019-05-21T13:19:17.084Z,12.82
2019-05-21T13:21:46.924Z,14.90
2019-05-21T13:24:17.228Z,9.63
2019-05-21T13:26:47.070Z,10.98
2019-05-21T13:29:16.913Z,10.05
2019-05-21T13:31:46.787Z,12.80
2019-05-21T13:34:17.710Z,11.80
2019-05-21T13:36:47.564Z,10.70
2019-05-21T13:39:17.473Z,9.70
2019-05-21T13:41:47.376Z,9.90
2019-05-21T13:44:18.871Z,11.08
2019-05-21T13:46:48.759Z,13.45
2019-05-21T13:49:18.602Z,15.50
2019-05-21T13:51:48.505Z,13.58
2019-05-21T13:54:18.734Z,13.68
2019-05-21T13:56:48.641Z,10.55
2019-05-21T13:59:19.476Z,10.35
2019-05-21T14:01:49.374Z,12.43
2019-05-21T14:04:19.299Z,11.48
2019-05-21T14:06:50.279Z,14.20
2019-05-21T14:09:20.483Z,13.20
2019-05-21T14:11:50.385Z,13.80
2019-05-21T14:14:20.620Z,14.87
2019-05-21T14:16:50.505Z,12.68
2019-05-21T14:19:20.397Z,12.80
2019-05-21T14:21:50.243Z,8.73
2019-05-21T14:24:20.163Z,12.03
2019-05-21T14:26:50.062Z,13.15
2019-05-21T14:29:19.929Z,16.17
2019-05-21T14:31:49.786Z,14.98
2019-05-21T14:34:20.629Z,16.37
2019-05-21T14:36:50.501Z,15.50
2019-05-21T14:39:20.692Z,14.85
2019-05-21T14:41:51.023Z,19.32
2019-05-21T14:44:20.889Z,17.00
2019-05-21T14:46:52.067Z,19.52
2019-05-21T14:49:21.931Z,17.37
2019-05-21T14:51:51.805Z,19.15
2019-05-21T14:54:26.690Z,18.02
2019-05-21T14:56:53.235Z,17.17
2019-05-21T14:59:23.482Z,18.02
2019-05-21T15:01:53.726Z,15.90
2019-05-21T15:04:23.811Z,17.85
2019-05-21T15:06:54.821Z,19.23
2019-05-21T15:09:25.220Z,21.05
2019-05-21T15:11:55.049Z,15.20
2019-05-21T15:14:25.342Z,23.85
2019-05-21T15:16:55.200Z,18.92
2019-05-21T15:19:25.602Z,19.07
2019-05-21T15:21:56.434Z,18.52
2019-05-21T15:24:27.392Z,16.77
2019-05-21T15:26:57.353Z,19.90
2019-05-21T15:29:27.601Z,18.40
2019-05-21T15:31:57.481Z,15.38
2019-05-21T15:34:27.340Z,17.75
2019-05-21T15:36:57.655Z,17.07
2019-05-21T15:39:27.586Z,17.40
2019-05-21T15:41:57.519Z,17.55
2019-05-21T15:44:27.698Z,13.45
2019-05-21T15:46:57.922Z,16.77
2019-05-21T15:49:36.261Z,18.48
2019-05-21T15:51:59.275Z,18.80
2019-05-21T15:54:29.162Z,19.27
2019-05-21T15:56:59.020Z,15.32
2019-05-21T15:59:28.874Z,17.23
2019-05-21T16:01:58.822Z,17.20
2019-05-21T16:04:29.070Z,19.20
2019-05-21T16:06:58.919Z,18.95
2019-05-21T16:09:28.816Z,18.48
2019-05-21T16:11:58.657Z,21.05
2019-05-21T16:14:28.896Z,17.07
2019-05-21T16:16:58.760Z,19.35
2019-05-21T16:19:28.962Z,15.78
2019-05-21T16:21:58.823Z,17.82
2019-05-21T16:24:28.675Z,19.02
2019-05-21T16:26:58.902Z,17.10
2019-05-21T16:29:29.119Z,19.45
2019-05-21T16:31:59.061Z,17.15
2019-05-21T16:34:31.916Z,21.85
2019-05-21T16:37:01.118Z,19.60
2019-05-21T16:39:32.263Z,19.42
2019-05-21T16:42:02.110Z,17.52
2019-05-21T16:44:32.398Z,16.57
2019-05-21T16:47:02.314Z,18.30
2019-05-21T16:49:32.194Z,18.70
2019-05-21T16:52:02.091Z,19.65
2019-05-21T16:54:31.971Z,19.40
2019-05-21T16:57:01.855Z,16.93
2019-05-21T16:59:31.734Z,18.42
2019-05-21T17:02:01.557Z,18.25
2019-05-21T17:04:31.410Z,20.80
2019-05-21T17:07:02.337Z,19.57
2019-05-21T17:09:32.190Z,18.73
2019-05-21T17:12:02.057Z,11.55
2019-05-21T17:14:31.941Z,16.67
2019-05-21T17:17:01.836Z,22.02
2019-05-21T17:19:32.997Z,18.82
2019-05-21T17:22:02.845Z,13.03
2019-05-21T17:24:33.085Z,17.70
2019-05-21T17:27:02.926Z,15.58
2019-05-21T17:29:33.222Z,16.15
2019-05-21T17:32:06.311Z,17.20
2019-05-21T17:34:35.082Z,15.75
2019-05-21T17:37:05.017Z,14.53
2019-05-21T17:39:34.934Z,10.65
2019-05-21T17:42:15.193Z,17.35
2019-05-21T17:44:36.809Z,18.20
2019-05-21T17:47:06.679Z,15.48
2019-05-21T17:49:36.561Z,19.10
2019-05-21T17:52:06.414Z,16.80
2019-05-21T17:54:37.343Z,15.15
2019-05-21T17:57:07.241Z,17.57
2019-05-21T17:59:37.203Z,16.80
2019-05-21T18:02:09.051Z,13.55
2019-05-21T18:04:39.072Z,22.17
2019-05-21T18:07:08.918Z,16.45
2019-05-21T18:09:39.131Z,14.30
2019-05-21T18:12:10.576Z,10.32
2019-05-21T18:14:40.882Z,12.07
2019-05-21T18:17:12.368Z,14.58
2019-05-21T18:19:42.557Z,18.07
2019-05-21T18:22:14.077Z,18.07
2019-05-21T18:24:44.085Z,18.45
2019-05-21T18:27:14.138Z,18.77
2019-05-21T18:29:44.098Z,22.00
2019-05-21T18:32:13.949Z,22.37
2019-05-21T18:34:43.845Z,15.30
2019-05-21T18:37:13.702Z,23.77
2019-05-21T18:39:43.666Z,14.78
2019-05-21T18:42:21.869Z,21.80
2019-05-21T18:44:45.473Z,24.43
2019-05-21T18:47:15.398Z,22.22
2019-05-21T18:49:45.655Z,24.70
2019-05-21T18:52:15.879Z,22.35
2019-05-21T18:54:48.019Z,24.50
2019-05-21T18:57:17.603Z,25.48
2019-05-21T18:59:48.898Z,25.72
2019-05-21T19:02:19.090Z,22.55
2019-05-21T19:04:49.009Z,25.23
2019-05-21T19:07:19.325Z,23.18
2019-05-21T19:09:49.576Z,22.45
2019-05-21T19:12:19.538Z,23.87
2019-05-21T19:14:49.557Z,25.65
2019-05-21T19:17:33.247Z,25.17
2019-05-21T19:19:50.986Z,23.83
2019-05-21T19:22:21.194Z,24.65
2019-05-21T19:24:51.284Z,25.35
2019-05-21T19:27:21.642Z,27.45
2019-05-21T19:29:51.561Z,26.85
2019-05-21T19:32:21.518Z,23.47
2019-05-21T19:34:51.409Z,24.63
2019-05-21T19:37:21.278Z,17.25
2019-05-21T19:39:51.175Z,27.42
2019-05-21T19:42:21.022Z,23.83
2019-05-21T19:44:50.876Z,24.10
2019-05-21T19:47:20.821Z,24.20
2019-05-21T19:49:50.753Z,23.20
2019-05-21T19:52:20.896Z,28.60
2019-05-21T19:54:50.933Z,25.88
2019-05-21T19:57:22.418Z,32.38
2019-05-21T19:59:52.278Z,27.37
2019-05-21T20:02:22.229Z,28.00
2019-05-21T20:04:52.100Z,27.75
2019-05-21T20:07:22.323Z,25.27
2019-05-21T20:09:54.142Z,26.33
2019-05-21T20:12:24.994Z,24.18
2019-05-21T20:14:55.118Z,25.10
2019-05-21T20:17:26.199Z,24.77
2019-05-21T20:19:56.730Z,24.35
2019-05-21T20:22:27.065Z,23.25
2019-05-21T20:24:57.121Z,22.25
2019-05-21T20:27:27.714Z,34.27
2019-05-21T20:30:11.628Z,24.02
2019-05-21T20:32:29.128Z,24.82
2019-05-21T20:34:58.993Z,23.90
2019-05-21T20:37:29.722Z,25.10
2019-05-21T20:39:59.745Z,23.18
2019-05-21T20:42:31.112Z,25.25
2019-05-21T20:45:03.101Z,22.48
2019-05-21T20:47:33.401Z,26.97
2019-05-21T20:50:11.748Z,22.90
2019-05-21T20:52:40.582Z,25.88
2019-05-21T20:55:11.002Z,23.30
2019-05-21T20:57:41.351Z,24.02
2019-05-21T21:00:14.845Z,24.37
2019-05-21T21:02:44.888Z,24.18
2019-05-21T21:05:15.209Z,25.43
2019-05-21T21:07:45.188Z,23.12
2019-05-21T21:10:15.152Z,22.30
2019-05-21T21:12:45.583Z,24.43
2019-05-21T21:15:16.623Z,22.70
2019-05-21T21:17:46.819Z,22.07
2019-05-21T21:20:16.760Z,22.75
2019-05-21T21:22:47.112Z,25.00
2019-05-21T21:25:21.934Z,25.88
2019-05-21T21:27:52.579Z,25.88
2019-05-21T21:30:23.622Z,24.92
2019-05-21T21:32:55.160Z,24.35
2019-05-21T21:35:25.323Z,21.37
2019-05-21T21:37:55.183Z,24.92
2019-05-21T21:40:25.397Z,25.00
2019-05-21T21:42:55.956Z,24.50
2019-05-21T21:45:26.805Z,22.50
2019-05-21T21:47:57.018Z,23.20
2019-05-21T21:50:28.485Z,22.60
2019-05-21T21:52:58.515Z,27.13
2019-05-21T21:55:31.843Z,26.97
2019-05-21T21:58:00.669Z,24.07
2019-05-21T22:00:50.040Z,23.07
2019-05-21T22:03:19.996Z,26.60
2019-05-21T22:05:50.914Z,26.87
2019-05-21T22:08:20.896Z,25.95
2019-05-21T22:10:51.427Z,25.85
2019-05-21T22:13:22.887Z,29.80
2019-05-21T22:15:54.139Z,25.08
2019-05-21T22:18:25.148Z,27.85
2019-05-21T22:20:55.400Z,29.87
2019-05-21T22:23:25.268Z,26.50
2019-05-21T22:25:55.127Z,33.53
2019-05-21T22:28:25.009Z,27.45
2019-05-21T22:30:55.035Z,25.20
2019-05-21T22:33:24.895Z,25.97
2019-05-21T22:35:55.209Z,27.90
2019-05-21T22:38:25.418Z,27.77
2019-05-21T22:40:55.363Z,26.02
2019-05-21T22:43:25.420Z,23.90
2019-05-21T22:45:55.341Z,25.43
2019-05-21T22:48:25.223Z,25.65
2019-05-21T22:50:55.156Z,25.08
2019-05-21T22:53:25.039Z,24.90
2019-05-21T22:55:55.750Z,24.55
2019-05-21T22:58:25.639Z,28.27
2019-05-21T23:00:55.969Z,30.60
2019-05-21T23:03:25.832Z,27.45
2019-05-21T23:05:55.767Z,31.50
2019-05-21T23:08:26.188Z,30.92
2019-05-21T23:10:56.051Z,29.60
2019-05-21T23:13:25.979Z,34.45
2019-05-21T23:15:56.575Z,29.02
2019-05-21T23:18:33.955Z,32.98
2019-05-21T23:21:22.962Z,32.83
2019-05-21T23:23:54.097Z,31.93
2019-05-21T23:26:24.024Z,32.75
2019-05-21T23:28:54.845Z,32.05
2019-05-21T23:31:25.499Z,29.63
2019-05-21T23:33:56.440Z,32.88
2019-05-21T23:36:27.761Z,33.55
2019-05-21T23:38:57.979Z,38.05
2019-05-21T23:41:28.823Z,33.85
2019-05-21T23:43:59.851Z,32.73
2019-05-21T23:46:30.300Z,33.00
2019-05-21T23:49:00.155Z,34.60
2019-05-21T23:51:30.076Z,34.73
2019-05-21T23:54:00.679Z,34.43
2019-05-21T23:56:30.870Z,40.88
2019-05-21T23:59:01.030Z,44.90
